TVF3071 GMTT-LFPO
Flight info
| Callsign | TVF3071 |
|---|---|
| Flight time | 2h 24m |
| Altitude | 32000 |
| Route | LAMAD M143 GALTO N869 PIMOS DCT RIXUR DCT PEPAS DCT ARPEX/N0464F340 DCT KOSEL DCT BUDIT DCT ETURA DCT TOSTO DCT OLPOS DCT BEGOX DCT LASPO DCT SOPET DCT DIKUT DCT TORDU DCT LOTOS DCT EBROX DCT LATRO DCT OLOXO DCT OKABI DCT TOU DCT DIBAG DCT TUDRA/N0454F280 DCT BEVOL UT158 AMB |
| Aircraft | B738/M-SDE2E3FGHIRWXY/LB1 |
Departure
| Time | 2026-04-17 08:49 |
|---|---|
| Airport | Tangier Ibn Battuta Airport (GMTT) |
Arrival
| Time | 2026-04-17 11:13 |
|---|---|
| Airport | Paris-Orly Airport (LFPO) |
| Time | Latitude | Longitude | Altitude | Speed | Heading |
|---|---|---|---|---|---|
| 2026-04-17 08:22 | 35.72521 | -5.91250 | 59 ft | 0 kts | 355° |
| 2026-04-17 08:40 | 35.72503 | -5.91248 | 55 ft | 4 kts | 352° |
| 2026-04-17 08:40 | 35.72476 | -5.91242 | 57 ft | 4 kts | 342° |
| 2026-04-17 08:41 | 35.72453 | -5.91228 | 53 ft | 4 kts | 310° |
| 2026-04-17 08:41 | 35.72446 | -5.91211 | 51 ft | 0 kts | 265° |
| 2026-04-17 08:43 | 35.72444 | -5.91242 | 55 ft | 9 kts | 265° |
| 2026-04-17 08:43 | 35.72437 | -5.91358 | 53 ft | 17 kts | 265° |
| 2026-04-17 08:43 | 35.72429 | -5.91507 | 59 ft | 17 kts | 266° |
| 2026-04-17 08:43 | 35.72456 | -5.91645 | 50 ft | 18 kts | 314° |
| 2026-04-17 08:44 | 35.72578 | -5.91693 | 59 ft | 20 kts | 355° |
| 2026-04-17 08:44 | 35.72719 | -5.91705 | 59 ft | 20 kts | 356° |
| 2026-04-17 08:44 | 35.72858 | -5.91718 | 59 ft | 20 kts | 355° |
| 2026-04-17 08:44 | 35.72954 | -5.91807 | 58 ft | 19 kts | 279° |
| 2026-04-17 08:45 | 35.72970 | -5.91967 | 58 ft | 19 kts | 277° |
| 2026-04-17 08:45 | 35.72984 | -5.92126 | 58 ft | 20 kts | 276° |
| 2026-04-17 08:45 | 35.73003 | -5.92322 | 51 ft | 24 kts | 277° |
| 2026-04-17 08:45 | 35.73021 | -5.92521 | 59 ft | 23 kts | 276° |
| 2026-04-17 08:46 | 35.73039 | -5.92711 | 57 ft | 22 kts | 277° |
| 2026-04-17 08:46 | 35.73055 | -5.92897 | 59 ft | 21 kts | 276° |
| 2026-04-17 08:46 | 35.73072 | -5.93074 | 56 ft | 21 kts | 276° |
| 2026-04-17 08:46 | 35.73088 | -5.93249 | 55 ft | 20 kts | 276° |
| 2026-04-17 08:47 | 35.73104 | -5.93418 | 56 ft | 20 kts | 277° |
| 2026-04-17 08:47 | 35.73121 | -5.93592 | 56 ft | 22 kts | 276° |
| 2026-04-17 08:47 | 35.73139 | -5.93801 | 59 ft | 26 kts | 276° |
| 2026-04-17 08:47 | 35.73177 | -5.94017 | 56 ft | 25 kts | 310° |
| 2026-04-17 08:48 | 35.73320 | -5.94027 | 57 ft | 12 kts | 16° |
| 2026-04-17 08:48 | 35.73335 | -5.93950 | 59 ft | 10 kts | 101° |
| 2026-04-17 08:48 | 35.73312 | -5.93693 | 60 ft | 60 kts | 96° |
| 2026-04-17 08:48 | 35.73242 | -5.92950 | 59 ft | 113 kts | 96° |
| 2026-04-17 08:49 | 35.73136 | -5.91824 | 158 ft | 145 kts | 96° |
| 2026-04-17 08:49 | 35.72997 | -5.90537 | 558 ft | 160 kts | 97° |
| 2026-04-17 08:49 | 35.72860 | -5.89140 | 1053 ft | 166 kts | 96° |
| 2026-04-17 08:49 | 35.72729 | -5.87728 | 1648 ft | 167 kts | 98° |
| 2026-04-17 08:50 | 35.72597 | -5.86231 | 1921 ft | 188 kts | 97° |
| 2026-04-17 08:50 | 35.72453 | -5.84556 | 2073 ft | 208 kts | 96° |
| 2026-04-17 08:50 | 35.72297 | -5.82687 | 2298 ft | 229 kts | 97° |
| 2026-04-17 08:50 | 35.72149 | -5.80675 | 2727 ft | 241 kts | 92° |
| 2026-04-17 08:51 | 35.72421 | -5.78582 | 3185 ft | 252 kts | 77° |
| 2026-04-17 08:51 | 35.72874 | -5.76526 | 3932 ft | 250 kts | 77° |
| 2026-04-17 08:51 | 35.73328 | -5.74398 | 4325 ft | 264 kts | 77° |
| 2026-04-17 08:51 | 35.73796 | -5.72174 | 4835 ft | 271 kts | 76° |
| 2026-04-17 08:52 | 35.74263 | -5.69929 | 5533 ft | 268 kts | 78° |
| 2026-04-17 08:52 | 35.74722 | -5.67706 | 6190 ft | 272 kts | 76° |
| 2026-04-17 08:52 | 35.75193 | -5.65424 | 6700 ft | 278 kts | 76° |
| 2026-04-17 08:52 | 35.75663 | -5.63133 | 7289 ft | 281 kts | 76° |
| 2026-04-17 08:53 | 35.76142 | -5.60791 | 7947 ft | 284 kts | 76° |
| 2026-04-17 08:53 | 35.76625 | -5.58420 | 8568 ft | 287 kts | 76° |
| 2026-04-17 08:53 | 35.77114 | -5.56021 | 9202 ft | 290 kts | 76° |
| 2026-04-17 08:53 | 35.77608 | -5.53592 | 9842 ft | 294 kts | 76° |
| 2026-04-17 08:54 | 35.78107 | -5.51136 | 10413 ft | 300 kts | 76° |
| 2026-04-17 08:54 | 35.78628 | -5.48554 | 10578 ft | 321 kts | 77° |
| 2026-04-17 08:54 | 35.79075 | -5.45779 | 10746 ft | 340 kts | 80° |
| 2026-04-17 08:54 | 35.79472 | -5.42830 | 10890 ft | 359 kts | 81° |
| 2026-04-17 08:55 | 35.79877 | -5.39720 | 11019 ft | 376 kts | 81° |
| 2026-04-17 08:55 | 35.80303 | -5.36482 | 11273 ft | 387 kts | 81° |
| 2026-04-17 08:55 | 35.80743 | -5.33194 | 11766 ft | 391 kts | 80° |
| 2026-04-17 08:55 | 35.81191 | -5.29883 | 12320 ft | 393 kts | 80° |
| 2026-04-17 08:56 | 35.81646 | -5.26554 | 12878 ft | 395 kts | 80° |
| 2026-04-17 08:56 | 35.82103 | -5.23208 | 13426 ft | 398 kts | 80° |
| 2026-04-17 08:56 | 35.82564 | -5.19829 | 13968 ft | 401 kts | 80° |
| 2026-04-17 08:56 | 35.83234 | -5.16492 | 14464 ft | 404 kts | 67° |
| 2026-04-17 08:57 | 35.84730 | -5.13578 | 15023 ft | 405 kts | 48° |
| 2026-04-17 08:57 | 35.86897 | -5.11354 | 15574 ft | 408 kts | 33° |
| 2026-04-17 08:57 | 35.89314 | -5.09501 | 16105 ft | 411 kts | 33° |
| 2026-04-17 08:57 | 35.91757 | -5.07635 | 16577 ft | 415 kts | 33° |
| 2026-04-17 08:58 | 35.94214 | -5.05743 | 17080 ft | 417 kts | 33° |
| 2026-04-17 08:58 | 35.96678 | -5.03823 | 17584 ft | 420 kts | 33° |
| 2026-04-17 08:58 | 35.99155 | -5.01875 | 18074 ft | 423 kts | 33° |
| 2026-04-17 08:58 | 36.01643 | -4.99908 | 18521 ft | 426 kts | 33° |
| 2026-04-17 08:59 | 36.04146 | -4.97926 | 18939 ft | 429 kts | 33° |
| 2026-04-17 08:59 | 36.06667 | -4.95925 | 19341 ft | 432 kts | 33° |
| 2026-04-17 08:59 | 36.09204 | -4.93909 | 19767 ft | 435 kts | 34° |
| 2026-04-17 08:59 | 36.11756 | -4.91882 | 20194 ft | 437 kts | 34° |
| 2026-04-17 09:00 | 36.14279 | -4.89847 | 20569 ft | 440 kts | 36° |
| 2026-04-17 09:00 | 36.16664 | -4.87381 | 20937 ft | 443 kts | 46° |
| 2026-04-17 09:00 | 36.18779 | -4.84670 | 21322 ft | 445 kts | 47° |
| 2026-04-17 09:00 | 36.20911 | -4.81870 | 21704 ft | 448 kts | 47° |
| 2026-04-17 09:01 | 36.23054 | -4.79047 | 22052 ft | 451 kts | 47° |
| 2026-04-17 09:01 | 36.25208 | -4.76218 | 22419 ft | 453 kts | 47° |
| 2026-04-17 09:01 | 36.27386 | -4.73375 | 22777 ft | 456 kts | 47° |
| 2026-04-17 09:01 | 36.29581 | -4.70522 | 23099 ft | 459 kts | 46° |
| 2026-04-17 09:02 | 36.31793 | -4.67654 | 23432 ft | 461 kts | 46° |
| 2026-04-17 09:02 | 36.34020 | -4.64771 | 23743 ft | 464 kts | 46° |
| 2026-04-17 09:02 | 36.36261 | -4.61871 | 24024 ft | 466 kts | 46° |
| 2026-04-17 09:02 | 36.38506 | -4.58963 | 24312 ft | 468 kts | 46° |
| 2026-04-17 09:03 | 36.40765 | -4.56034 | 24619 ft | 469 kts | 46° |
| 2026-04-17 09:03 | 36.43022 | -4.53105 | 24923 ft | 470 kts | 46° |
| 2026-04-17 09:03 | 36.44521 | -4.51158 | 25116 ft | 471 kts | 46° |
| 2026-04-17 09:03 | 36.46793 | -4.48203 | 25358 ft | 474 kts | 46° |
| 2026-04-17 09:04 | 36.49075 | -4.45232 | 25627 ft | 476 kts | 46° |
| 2026-04-17 09:04 | 36.51363 | -4.42252 | 25896 ft | 477 kts | 46° |
| 2026-04-17 09:04 | 36.53655 | -4.39263 | 26130 ft | 479 kts | 46° |
| 2026-04-17 09:04 | 36.55959 | -4.36255 | 26393 ft | 481 kts | 46° |
| 2026-04-17 09:05 | 36.58270 | -4.33237 | 26617 ft | 483 kts | 46° |
| 2026-04-17 09:05 | 36.60586 | -4.30208 | 26906 ft | 483 kts | 46° |
| 2026-04-17 09:05 | 36.62900 | -4.27180 | 27292 ft | 481 kts | 46° |
| 2026-04-17 09:05 | 36.65199 | -4.24167 | 27680 ft | 480 kts | 46° |
| 2026-04-17 09:06 | 36.67495 | -4.21157 | 28017 ft | 479 kts | 46° |
| 2026-04-17 09:06 | 36.69789 | -4.18146 | 28405 ft | 478 kts | 46° |
| 2026-04-17 09:06 | 36.72073 | -4.15145 | 28778 ft | 477 kts | 46° |
| 2026-04-17 09:06 | 36.74351 | -4.12150 | 29127 ft | 476 kts | 46° |
| 2026-04-17 09:07 | 36.76627 | -4.09153 | 29480 ft | 476 kts | 46° |
| 2026-04-17 09:07 | 36.78903 | -4.06156 | 29858 ft | 475 kts | 46° |
| 2026-04-17 09:07 | 36.81167 | -4.03170 | 30234 ft | 474 kts | 46° |
| 2026-04-17 09:07 | 36.83429 | -4.00185 | 30537 ft | 473 kts | 46° |
| 2026-04-17 09:08 | 36.85691 | -3.97196 | 30811 ft | 473 kts | 47° |
| 2026-04-17 09:08 | 36.87951 | -3.94208 | 31090 ft | 473 kts | 47° |
| 2026-04-17 09:08 | 36.90207 | -3.91221 | 31388 ft | 472 kts | 47° |
| 2026-04-17 09:08 | 36.92457 | -3.88241 | 31683 ft | 472 kts | 47° |
| 2026-04-17 09:09 | 36.94708 | -3.85256 | 31901 ft | 473 kts | 47° |
| 2026-04-17 09:09 | 36.96968 | -3.82256 | 32072 ft | 475 kts | 47° |
| 2026-04-17 09:09 | 36.99195 | -3.79299 | 32151 ft | 459 kts | 47° |
| 2026-04-17 09:10 | 37.05788 | -3.70523 | 32222 ft | 467 kts | 47° |
| 2026-04-17 09:10 | 37.10273 | -3.64541 | 32221 ft | 474 kts | 47° |
| 2026-04-17 09:11 | 37.14837 | -3.58578 | 32210 ft | 474 kts | 46° |
| 2026-04-17 09:11 | 37.19407 | -3.52702 | 32213 ft | 474 kts | 46° |
| 2026-04-17 09:12 | 37.23991 | -3.46775 | 32215 ft | 473 kts | 46° |
| 2026-04-17 09:12 | 37.28566 | -3.40841 | 32203 ft | 472 kts | 46° |
| 2026-04-17 09:13 | 37.33130 | -3.34911 | 32218 ft | 472 kts | 46° |
| 2026-04-17 09:13 | 37.37682 | -3.28986 | 32216 ft | 471 kts | 46° |
| 2026-04-17 09:14 | 37.42229 | -3.23056 | 32202 ft | 470 kts | 46° |
| 2026-04-17 09:14 | 37.46767 | -3.17127 | 32215 ft | 470 kts | 46° |
| 2026-04-17 09:15 | 37.51298 | -3.11196 | 32207 ft | 470 kts | 46° |
| 2026-04-17 09:15 | 37.55827 | -3.05256 | 32205 ft | 470 kts | 46° |
| 2026-04-17 09:16 | 37.60357 | -2.99312 | 32211 ft | 470 kts | 46° |
| 2026-04-17 09:16 | 37.64888 | -2.93370 | 32209 ft | 470 kts | 46° |
| 2026-04-17 09:17 | 37.69412 | -2.87424 | 32218 ft | 470 kts | 46° |
| 2026-04-17 09:17 | 37.73938 | -2.81464 | 32217 ft | 471 kts | 46° |
| 2026-04-17 09:18 | 37.78469 | -2.75477 | 32210 ft | 472 kts | 46° |
| 2026-04-17 09:18 | 37.83000 | -2.69461 | 32216 ft | 472 kts | 47° |
| 2026-04-17 09:19 | 37.87508 | -2.63465 | 32212 ft | 473 kts | 46° |
| 2026-04-17 09:19 | 37.92034 | -2.57433 | 32211 ft | 472 kts | 46° |
| 2026-04-17 09:20 | 37.96554 | -2.51400 | 32204 ft | 472 kts | 46° |
| 2026-04-17 09:20 | 38.01074 | -2.45364 | 32211 ft | 472 kts | 46° |
| 2026-04-17 09:21 | 38.05592 | -2.39327 | 32216 ft | 471 kts | 46° |
| 2026-04-17 09:21 | 38.10103 | -2.33282 | 32205 ft | 472 kts | 46° |
| 2026-04-17 09:22 | 38.14609 | -2.27234 | 32215 ft | 471 kts | 46° |
| 2026-04-17 09:22 | 38.19098 | -2.21196 | 32198 ft | 469 kts | 46° |
| 2026-04-17 09:23 | 38.23405 | -2.14974 | 32207 ft | 468 kts | 51° |
| 2026-04-17 09:23 | 38.27362 | -2.08404 | 32206 ft | 468 kts | 52° |
| 2026-04-17 09:24 | 38.31333 | -2.01838 | 32202 ft | 467 kts | 52° |
| 2026-04-17 09:24 | 38.35342 | -1.95321 | 32200 ft | 467 kts | 52° |
| 2026-04-17 09:25 | 38.39353 | -1.88808 | 32214 ft | 467 kts | 51° |
| 2026-04-17 09:25 | 38.43362 | -1.82295 | 32199 ft | 467 kts | 51° |
| 2026-04-17 09:26 | 38.47339 | -1.75821 | 32201 ft | 466 kts | 51° |
| 2026-04-17 09:26 | 38.51333 | -1.69303 | 32201 ft | 466 kts | 51° |
| 2026-04-17 09:27 | 38.55328 | -1.62771 | 32197 ft | 466 kts | 52° |
| 2026-04-17 09:27 | 38.59311 | -1.56243 | 32199 ft | 466 kts | 52° |
| 2026-04-17 09:28 | 38.63290 | -1.49709 | 32205 ft | 465 kts | 51° |
| 2026-04-17 09:28 | 38.67258 | -1.43179 | 32196 ft | 465 kts | 52° |
| 2026-04-17 09:29 | 38.71223 | -1.36642 | 32196 ft | 465 kts | 52° |
| 2026-04-17 09:29 | 38.75185 | -1.30098 | 32195 ft | 464 kts | 52° |
| 2026-04-17 09:30 | 38.79141 | -1.23550 | 32198 ft | 464 kts | 52° |
| 2026-04-17 09:30 | 38.83090 | -1.16998 | 32190 ft | 465 kts | 52° |
| 2026-04-17 09:31 | 38.87035 | -1.10438 | 32199 ft | 464 kts | 52° |
| 2026-04-17 09:31 | 38.90977 | -1.03870 | 32179 ft | 464 kts | 52° |
| 2026-04-17 09:32 | 38.94888 | -0.97340 | 32188 ft | 464 kts | 52° |
| 2026-04-17 09:32 | 38.98824 | -0.90757 | 32177 ft | 464 kts | 52° |
| 2026-04-17 09:33 | 39.02751 | -0.84173 | 32183 ft | 464 kts | 52° |
| 2026-04-17 09:33 | 39.06720 | -0.77613 | 32175 ft | 464 kts | 48° |
| 2026-04-17 09:34 | 39.11516 | -0.72098 | 32177 ft | 463 kts | 38° |
| 2026-04-17 09:34 | 39.16539 | -0.66913 | 32166 ft | 462 kts | 38° |
| 2026-04-17 09:35 | 39.21514 | -0.61662 | 32179 ft | 462 kts | 39° |
| 2026-04-17 09:35 | 39.26467 | -0.56365 | 32173 ft | 462 kts | 39° |
| 2026-04-17 09:36 | 39.31468 | -0.51161 | 32176 ft | 462 kts | 36° |
| 2026-04-17 09:36 | 39.36595 | -0.46249 | 32180 ft | 462 kts | 35° |
| 2026-04-17 09:37 | 39.41765 | -0.41312 | 32185 ft | 462 kts | 36° |
| 2026-04-17 09:37 | 39.46916 | -0.36324 | 32187 ft | 463 kts | 36° |
| 2026-04-17 09:38 | 39.52061 | -0.31302 | 32185 ft | 464 kts | 36° |
| 2026-04-17 09:38 | 39.57212 | -0.26262 | 32184 ft | 464 kts | 36° |
| 2026-04-17 09:39 | 39.62368 | -0.21210 | 32182 ft | 465 kts | 36° |
| 2026-04-17 09:39 | 39.67534 | -0.16138 | 32183 ft | 466 kts | 36° |
| 2026-04-17 09:40 | 39.72701 | -0.11057 | 32182 ft | 466 kts | 36° |
| 2026-04-17 09:40 | 39.77870 | -0.05963 | 32177 ft | 467 kts | 36° |
| 2026-04-17 09:41 | 39.83034 | -0.00843 | 32181 ft | 467 kts | 38° |
| 2026-04-17 09:41 | 39.87644 | 0.05135 | 32184 ft | 469 kts | 46° |
| 2026-04-17 09:42 | 39.92021 | 0.11434 | 32177 ft | 469 kts | 46° |
| 2026-04-17 09:42 | 39.96452 | 0.17672 | 32179 ft | 468 kts | 45° |
| 2026-04-17 09:43 | 40.00869 | 0.23834 | 32179 ft | 468 kts | 45° |
| 2026-04-17 09:43 | 40.05317 | 0.30041 | 32174 ft | 468 kts | 45° |
| 2026-04-17 09:44 | 40.09758 | 0.36251 | 32184 ft | 468 kts | 45° |
| 2026-04-17 09:44 | 40.14186 | 0.42456 | 32191 ft | 468 kts | 45° |
| 2026-04-17 09:45 | 40.18622 | 0.48688 | 32184 ft | 468 kts | 45° |
| 2026-04-17 09:45 | 40.23053 | 0.54924 | 32186 ft | 468 kts | 45° |
| 2026-04-17 09:46 | 40.27480 | 0.61167 | 32178 ft | 468 kts | 45° |
| 2026-04-17 09:46 | 40.31903 | 0.67419 | 32188 ft | 468 kts | 45° |
| 2026-04-17 09:47 | 40.36327 | 0.73688 | 32185 ft | 469 kts | 45° |
| 2026-04-17 09:47 | 40.40752 | 0.79973 | 32197 ft | 469 kts | 45° |
| 2026-04-17 09:48 | 40.45179 | 0.86273 | 32185 ft | 469 kts | 45° |
| 2026-04-17 09:48 | 40.49596 | 0.92573 | 32183 ft | 469 kts | 45° |
| 2026-04-17 09:49 | 40.54012 | 0.98883 | 32189 ft | 469 kts | 45° |
| 2026-04-17 09:49 | 40.58422 | 1.05205 | 32190 ft | 469 kts | 45° |
| 2026-04-17 09:50 | 40.62822 | 1.11539 | 32194 ft | 469 kts | 45° |
| 2026-04-17 09:50 | 40.67223 | 1.17883 | 32203 ft | 469 kts | 45° |
| 2026-04-17 09:51 | 40.72247 | 1.23114 | 32199 ft | 462 kts | 26° |
| 2026-04-17 09:51 | 40.77229 | 1.25659 | 32201 ft | 458 kts | 13° |
| 2026-04-17 09:52 | 40.83387 | 1.27779 | 32191 ft | 457 kts | 12° |
| 2026-04-17 09:52 | 40.89544 | 1.29904 | 32189 ft | 457 kts | 13° |
| 2026-04-17 09:53 | 40.95691 | 1.32086 | 32187 ft | 457 kts | 13° |
| 2026-04-17 09:53 | 41.01835 | 1.34297 | 32188 ft | 458 kts | 13° |
| 2026-04-17 09:54 | 41.07981 | 1.36518 | 32187 ft | 458 kts | 13° |
| 2026-04-17 09:54 | 41.14133 | 1.38743 | 32185 ft | 459 kts | 13° |
| 2026-04-17 09:55 | 41.20291 | 1.40974 | 32186 ft | 459 kts | 13° |
| 2026-04-17 09:55 | 41.26425 | 1.43200 | 32183 ft | 460 kts | 13° |
| 2026-04-17 09:56 | 41.32599 | 1.45445 | 32188 ft | 460 kts | 13° |
| 2026-04-17 09:56 | 41.38781 | 1.47698 | 32186 ft | 461 kts | 13° |
| 2026-04-17 09:57 | 41.44973 | 1.49959 | 32183 ft | 461 kts | 13° |
| 2026-04-17 09:57 | 41.51168 | 1.52225 | 32182 ft | 462 kts | 13° |
| 2026-04-17 09:58 | 41.57359 | 1.54495 | 32186 ft | 461 kts | 13° |
| 2026-04-17 09:58 | 41.63543 | 1.56766 | 32181 ft | 461 kts | 13° |
| 2026-04-17 09:59 | 41.69734 | 1.59045 | 32174 ft | 460 kts | 13° |
| 2026-04-17 09:59 | 41.75925 | 1.61135 | 32169 ft | 457 kts | 6° |
| 2026-04-17 10:00 | 41.82227 | 1.61178 | 32187 ft | 451 kts | 351° |
| 2026-04-17 10:00 | 41.88457 | 1.60122 | 32179 ft | 451 kts | 351° |
| 2026-04-17 10:01 | 41.94685 | 1.59071 | 32183 ft | 451 kts | 351° |
| 2026-04-17 10:01 | 42.00934 | 1.58065 | 32182 ft | 452 kts | 351° |
| 2026-04-17 10:02 | 42.07184 | 1.57077 | 32185 ft | 453 kts | 351° |
| 2026-04-17 10:02 | 42.13404 | 1.56094 | 32178 ft | 454 kts | 351° |
| 2026-04-17 10:03 | 42.19671 | 1.55100 | 32237 ft | 454 kts | 351° |
| 2026-04-17 10:03 | 42.25959 | 1.54101 | 32239 ft | 455 kts | 351° |
| 2026-04-17 10:04 | 42.32254 | 1.53098 | 32247 ft | 455 kts | 351° |
| 2026-04-17 10:04 | 42.38554 | 1.52092 | 32229 ft | 456 kts | 351° |
| 2026-04-17 10:05 | 42.44854 | 1.51084 | 32248 ft | 456 kts | 350° |
| 2026-04-17 10:05 | 42.51165 | 1.50074 | 32222 ft | 457 kts | 350° |
| 2026-04-17 10:06 | 42.57473 | 1.49064 | 32221 ft | 456 kts | 350° |
| 2026-04-17 10:06 | 42.63776 | 1.48051 | 32213 ft | 456 kts | 350° |
| 2026-04-17 10:07 | 42.70078 | 1.47038 | 32210 ft | 456 kts | 350° |
| 2026-04-17 10:07 | 42.76387 | 1.46021 | 32188 ft | 456 kts | 350° |
| 2026-04-17 10:08 | 42.82683 | 1.45005 | 32202 ft | 455 kts | 350° |
| 2026-04-17 10:08 | 42.88977 | 1.43987 | 32201 ft | 455 kts | 350° |
| 2026-04-17 10:09 | 42.95262 | 1.42967 | 32191 ft | 455 kts | 350° |
| 2026-04-17 10:09 | 43.01535 | 1.41948 | 32205 ft | 454 kts | 350° |
| 2026-04-17 10:10 | 43.07773 | 1.40932 | 32194 ft | 454 kts | 350° |
| 2026-04-17 10:11 | 43.17188 | 1.39395 | 32189 ft | 454 kts | 350° |
| 2026-04-17 10:11 | 43.23465 | 1.38368 | 32198 ft | 454 kts | 350° |
| 2026-04-17 10:12 | 43.29741 | 1.37339 | 32190 ft | 455 kts | 350° |
| 2026-04-17 10:12 | 43.36028 | 1.36305 | 32191 ft | 455 kts | 350° |
| 2026-04-17 10:13 | 43.42314 | 1.35270 | 32197 ft | 455 kts | 350° |
| 2026-04-17 10:13 | 43.48601 | 1.34233 | 32197 ft | 455 kts | 350° |
| 2026-04-17 10:14 | 43.54894 | 1.33192 | 32191 ft | 455 kts | 350° |
| 2026-04-17 10:14 | 43.61182 | 1.32149 | 32213 ft | 455 kts | 350° |
| 2026-04-17 10:15 | 43.67472 | 1.31105 | 32213 ft | 455 kts | 350° |
| 2026-04-17 10:15 | 43.73718 | 1.29825 | 32208 ft | 453 kts | 347° |
| 2026-04-17 10:16 | 43.79918 | 1.28267 | 32207 ft | 453 kts | 346° |
| 2026-04-17 10:16 | 43.86125 | 1.26709 | 32210 ft | 453 kts | 346° |
| 2026-04-17 10:17 | 43.92332 | 1.25192 | 32194 ft | 453 kts | 347° |
| 2026-04-17 10:17 | 43.98508 | 1.23702 | 32194 ft | 453 kts | 347° |
| 2026-04-17 10:18 | 44.04713 | 1.22207 | 32206 ft | 453 kts | 346° |
| 2026-04-17 10:18 | 44.10925 | 1.20705 | 32195 ft | 453 kts | 346° |
| 2026-04-17 10:19 | 44.17133 | 1.19201 | 32201 ft | 453 kts | 346° |
| 2026-04-17 10:19 | 44.23340 | 1.17692 | 32205 ft | 453 kts | 346° |
| 2026-04-17 10:20 | 44.29554 | 1.16179 | 32199 ft | 453 kts | 346° |
| 2026-04-17 10:20 | 44.35763 | 1.14664 | 32190 ft | 453 kts | 346° |
| 2026-04-17 10:21 | 44.41972 | 1.13146 | 32203 ft | 453 kts | 346° |
| 2026-04-17 10:21 | 44.48182 | 1.11624 | 32187 ft | 453 kts | 346° |
| 2026-04-17 10:22 | 44.54394 | 1.10098 | 32196 ft | 454 kts | 346° |
| 2026-04-17 10:22 | 44.60614 | 1.08567 | 32196 ft | 453 kts | 346° |
| 2026-04-17 10:23 | 44.66787 | 1.07044 | 32188 ft | 454 kts | 346° |
| 2026-04-17 10:23 | 44.73008 | 1.05506 | 32195 ft | 453 kts | 346° |
| 2026-04-17 10:24 | 44.79220 | 1.03967 | 32190 ft | 454 kts | 346° |
| 2026-04-17 10:24 | 44.85438 | 1.02424 | 32207 ft | 454 kts | 346° |
| 2026-04-17 10:25 | 44.91655 | 1.00877 | 32187 ft | 454 kts | 346° |
| 2026-04-17 10:25 | 44.97865 | 0.99328 | 32193 ft | 453 kts | 346° |
| 2026-04-17 10:26 | 45.04079 | 0.97775 | 32204 ft | 453 kts | 346° |
| 2026-04-17 10:26 | 45.10293 | 0.96218 | 32187 ft | 454 kts | 346° |
| 2026-04-17 10:27 | 45.16520 | 0.94655 | 32192 ft | 454 kts | 346° |
| 2026-04-17 10:27 | 45.22749 | 0.93088 | 32219 ft | 455 kts | 346° |
| 2026-04-17 10:28 | 45.28999 | 0.91512 | 32214 ft | 456 kts | 346° |
| 2026-04-17 10:28 | 45.35249 | 0.89932 | 32208 ft | 457 kts | 346° |
| 2026-04-17 10:29 | 45.41477 | 0.88355 | 32207 ft | 458 kts | 346° |
| 2026-04-17 10:29 | 45.47749 | 0.86763 | 32202 ft | 458 kts | 346° |
| 2026-04-17 10:30 | 45.54032 | 0.85164 | 32191 ft | 459 kts | 346° |
| 2026-04-17 10:30 | 45.60315 | 0.83562 | 32202 ft | 459 kts | 346° |
| 2026-04-17 10:31 | 45.66599 | 0.81956 | 32190 ft | 459 kts | 346° |
| 2026-04-17 10:31 | 45.72890 | 0.80344 | 32190 ft | 459 kts | 346° |
| 2026-04-17 10:32 | 45.79177 | 0.78791 | 32191 ft | 460 kts | 350° |
| 2026-04-17 10:32 | 45.85627 | 0.78525 | 32191 ft | 464 kts | 356° |
| 2026-04-17 10:33 | 45.92089 | 0.78599 | 32191 ft | 464 kts | 357° |
| 2026-04-17 10:33 | 45.98549 | 0.78613 | 32202 ft | 464 kts | 356° |
| 2026-04-17 10:34 | 46.05014 | 0.78567 | 32191 ft | 465 kts | 356° |
| 2026-04-17 10:34 | 46.11443 | 0.78502 | 32195 ft | 465 kts | 356° |
| 2026-04-17 10:35 | 46.17951 | 0.78438 | 32205 ft | 465 kts | 356° |
| 2026-04-17 10:35 | 46.24383 | 0.78377 | 32194 ft | 465 kts | 356° |
| 2026-04-17 10:36 | 46.30862 | 0.78317 | 32193 ft | 465 kts | 356° |
| 2026-04-17 10:36 | 46.37345 | 0.78256 | 32210 ft | 465 kts | 356° |
| 2026-04-17 10:37 | 46.43821 | 0.78195 | 32196 ft | 465 kts | 356° |
| 2026-04-17 10:37 | 46.50298 | 0.78134 | 32199 ft | 465 kts | 356° |
| 2026-04-17 10:38 | 46.56751 | 0.78792 | 32210 ft | 469 kts | 9° |
| 2026-04-17 10:38 | 46.63129 | 0.80870 | 32202 ft | 469 kts | 11° |
| 2026-04-17 10:39 | 46.69495 | 0.82991 | 32205 ft | 469 kts | 10° |
| 2026-04-17 10:39 | 46.74785 | 0.84695 | 32207 ft | 468 kts | 10° |
| 2026-04-17 10:40 | 46.81154 | 0.86714 | 32208 ft | 468 kts | 9° |
| 2026-04-17 10:40 | 46.88545 | 0.89059 | 32207 ft | 468 kts | 10° |
| 2026-04-17 10:41 | 46.93871 | 0.90757 | 32209 ft | 467 kts | 10° |
| 2026-04-17 10:41 | 47.00228 | 0.92787 | 31912 ft | 471 kts | 10° |
| 2026-04-17 10:41 | 47.03410 | 0.93801 | 31236 ft | 472 kts | 10° |
| 2026-04-17 10:42 | 47.06617 | 0.94819 | 30492 ft | 472 kts | 10° |
| 2026-04-17 10:42 | 47.09823 | 0.95835 | 29621 ft | 472 kts | 10° |
| 2026-04-17 10:42 | 47.13037 | 0.96854 | 28745 ft | 472 kts | 10° |
| 2026-04-17 10:42 | 47.16283 | 0.97885 | 27863 ft | 472 kts | 10° |
| 2026-04-17 10:43 | 47.19450 | 0.98893 | 26980 ft | 472 kts | 10° |
| 2026-04-17 10:43 | 47.22665 | 0.99917 | 26039 ft | 474 kts | 10° |
| 2026-04-17 10:43 | 47.25886 | 1.00945 | 25335 ft | 470 kts | 10° |
| 2026-04-17 10:43 | 47.29064 | 1.01963 | 24845 ft | 462 kts | 10° |
| 2026-04-17 10:44 | 47.32150 | 1.02953 | 24679 ft | 447 kts | 10° |
| 2026-04-17 10:44 | 47.35139 | 1.03912 | 24484 ft | 433 kts | 10° |
| 2026-04-17 10:44 | 47.38052 | 1.04846 | 24302 ft | 421 kts | 10° |
| 2026-04-17 10:44 | 47.40873 | 1.05752 | 24134 ft | 410 kts | 10° |
| 2026-04-17 10:45 | 47.43620 | 1.06665 | 23900 ft | 401 kts | 13° |
| 2026-04-17 10:45 | 47.46272 | 1.07948 | 23397 ft | 401 kts | 18° |
| 2026-04-17 10:45 | 47.48872 | 1.09394 | 22952 ft | 397 kts | 18° |
| 2026-04-17 10:45 | 47.51454 | 1.10816 | 22511 ft | 394 kts | 18° |
| 2026-04-17 10:46 | 47.54022 | 1.12170 | 22089 ft | 390 kts | 17° |
| 2026-04-17 10:46 | 47.56579 | 1.13471 | 21669 ft | 387 kts | 16° |
| 2026-04-17 10:46 | 47.59112 | 1.14746 | 21246 ft | 384 kts | 16° |
| 2026-04-17 10:46 | 47.61637 | 1.16015 | 20819 ft | 382 kts | 16° |
| 2026-04-17 10:47 | 47.64145 | 1.17280 | 20395 ft | 379 kts | 16° |
| 2026-04-17 10:47 | 47.66633 | 1.18541 | 19980 ft | 377 kts | 16° |
| 2026-04-17 10:47 | 47.69107 | 1.19799 | 19568 ft | 375 kts | 16° |
| 2026-04-17 10:47 | 47.71531 | 1.21034 | 19160 ft | 373 kts | 16° |
| 2026-04-17 10:48 | 47.73978 | 1.22283 | 18760 ft | 371 kts | 16° |
| 2026-04-17 10:48 | 47.76414 | 1.23527 | 18338 ft | 369 kts | 16° |
| 2026-04-17 10:48 | 47.78838 | 1.24768 | 17874 ft | 367 kts | 16° |
| 2026-04-17 10:48 | 47.81250 | 1.26004 | 17455 ft | 365 kts | 16° |
| 2026-04-17 10:49 | 47.83639 | 1.27229 | 17032 ft | 362 kts | 16° |
| 2026-04-17 10:49 | 47.86015 | 1.28448 | 16627 ft | 360 kts | 16° |
| 2026-04-17 10:49 | 47.88369 | 1.29657 | 16223 ft | 357 kts | 16° |
| 2026-04-17 10:49 | 47.90712 | 1.30862 | 15835 ft | 355 kts | 16° |
| 2026-04-17 10:50 | 47.93038 | 1.32059 | 15441 ft | 352 kts | 16° |
| 2026-04-17 10:50 | 47.95345 | 1.33247 | 15244 ft | 347 kts | 16° |
| 2026-04-17 10:50 | 47.97590 | 1.34407 | 15217 ft | 337 kts | 16° |
| 2026-04-17 10:50 | 47.99773 | 1.35534 | 15204 ft | 327 kts | 16° |
| 2026-04-17 10:51 | 48.01885 | 1.36626 | 15202 ft | 315 kts | 16° |
| 2026-04-17 10:51 | 48.03912 | 1.37676 | 15197 ft | 302 kts | 15° |
| 2026-04-17 10:51 | 48.05850 | 1.38704 | 15195 ft | 290 kts | 20° |
| 2026-04-17 10:51 | 48.07558 | 1.40200 | 15212 ft | 280 kts | 32° |
| 2026-04-17 10:52 | 48.09115 | 1.41855 | 15194 ft | 269 kts | 32° |
| 2026-04-17 10:52 | 48.10628 | 1.43424 | 15203 ft | 263 kts | 31° |
| 2026-04-17 10:52 | 48.12159 | 1.44986 | 15235 ft | 271 kts | 31° |
| 2026-04-17 10:52 | 48.13738 | 1.46586 | 15239 ft | 277 kts | 31° |
| 2026-04-17 10:53 | 48.15322 | 1.48189 | 15215 ft | 277 kts | 31° |
| 2026-04-17 10:53 | 48.16929 | 1.49818 | 15210 ft | 275 kts | 31° |
| 2026-04-17 10:53 | 48.18506 | 1.51415 | 15213 ft | 273 kts | 31° |
| 2026-04-17 10:53 | 48.20074 | 1.53002 | 15209 ft | 271 kts | 31° |
| 2026-04-17 10:54 | 48.21636 | 1.54585 | 15227 ft | 270 kts | 31° |
| 2026-04-17 10:54 | 48.23193 | 1.56164 | 15220 ft | 271 kts | 31° |
| 2026-04-17 10:54 | 48.24734 | 1.57728 | 15221 ft | 271 kts | 31° |
| 2026-04-17 10:54 | 48.26301 | 1.59319 | 15227 ft | 272 kts | 31° |
| 2026-04-17 10:55 | 48.27873 | 1.60916 | 15234 ft | 274 kts | 31° |
| 2026-04-17 10:55 | 48.29456 | 1.62526 | 15224 ft | 275 kts | 31° |
| 2026-04-17 10:55 | 48.31047 | 1.64145 | 15231 ft | 277 kts | 31° |
| 2026-04-17 10:55 | 48.32646 | 1.65774 | 15229 ft | 278 kts | 31° |
| 2026-04-17 10:56 | 48.34249 | 1.67410 | 15228 ft | 279 kts | 31° |
| 2026-04-17 10:56 | 48.35857 | 1.69050 | 15228 ft | 279 kts | 31° |
| 2026-04-17 10:56 | 48.37463 | 1.70691 | 15217 ft | 279 kts | 31° |
| 2026-04-17 10:56 | 48.39055 | 1.72319 | 15119 ft | 274 kts | 31° |
| 2026-04-17 10:57 | 48.40618 | 1.73921 | 14840 ft | 270 kts | 31° |
| 2026-04-17 10:57 | 48.42173 | 1.75512 | 14438 ft | 270 kts | 31° |
| 2026-04-17 10:57 | 48.43726 | 1.77103 | 14022 ft | 271 kts | 31° |
| 2026-04-17 10:57 | 48.45287 | 1.78702 | 13525 ft | 273 kts | 31° |
| 2026-04-17 10:58 | 48.46902 | 1.80356 | 12592 ft | 290 kts | 32° |
| 2026-04-17 10:58 | 48.48635 | 1.82132 | 11668 ft | 312 kts | 32° |
| 2026-04-17 10:58 | 48.50492 | 1.84038 | 11516 ft | 332 kts | 32° |
| 2026-04-17 10:58 | 48.52427 | 1.86044 | 11392 ft | 342 kts | 35° |
| 2026-04-17 10:59 | 48.54044 | 1.88681 | 11251 ft | 346 kts | 60° |
| 2026-04-17 10:59 | 48.54844 | 1.92059 | 11227 ft | 344 kts | 81° |
| 2026-04-17 10:59 | 48.55123 | 1.95653 | 11238 ft | 345 kts | 84° |
| 2026-04-17 10:59 | 48.55345 | 1.99266 | 11224 ft | 346 kts | 85° |
| 2026-04-17 11:00 | 48.55560 | 2.02869 | 11219 ft | 345 kts | 85° |
| 2026-04-17 11:00 | 48.55780 | 2.06480 | 11220 ft | 345 kts | 85° |
| 2026-04-17 11:00 | 48.56008 | 2.10081 | 11227 ft | 344 kts | 84° |
| 2026-04-17 11:00 | 48.56241 | 2.13674 | 11222 ft | 344 kts | 84° |
| 2026-04-17 11:01 | 48.56477 | 2.17270 | 11236 ft | 344 kts | 84° |
| 2026-04-17 11:01 | 48.56711 | 2.20821 | 11127 ft | 344 kts | 84° |
| 2026-04-17 11:01 | 48.56947 | 2.24415 | 10782 ft | 343 kts | 84° |
| 2026-04-17 11:01 | 48.57181 | 2.27976 | 10447 ft | 339 kts | 84° |
| 2026-04-17 11:02 | 48.57411 | 2.31502 | 10105 ft | 335 kts | 84° |
| 2026-04-17 11:02 | 48.57638 | 2.34978 | 9741 ft | 332 kts | 84° |
| 2026-04-17 11:02 | 48.58222 | 2.38320 | 9354 ft | 328 kts | 66° |
| 2026-04-17 11:02 | 48.59202 | 2.41415 | 9010 ft | 325 kts | 63° |
| 2026-04-17 11:03 | 48.60220 | 2.44442 | 8638 ft | 322 kts | 64° |
| 2026-04-17 11:03 | 48.61024 | 2.47579 | 8291 ft | 319 kts | 71° |
| 2026-04-17 11:03 | 48.61724 | 2.50745 | 7942 ft | 316 kts | 71° |
| 2026-04-17 11:03 | 48.62404 | 2.53894 | 7590 ft | 314 kts | 71° |
| 2026-04-17 11:04 | 48.63075 | 2.57028 | 7245 ft | 312 kts | 72° |
| 2026-04-17 11:04 | 48.63725 | 2.60089 | 6916 ft | 310 kts | 72° |
| 2026-04-17 11:04 | 48.64388 | 2.63221 | 6563 ft | 307 kts | 72° |
| 2026-04-17 11:04 | 48.65037 | 2.66289 | 6195 ft | 304 kts | 72° |
| 2026-04-17 11:05 | 48.65669 | 2.69304 | 5826 ft | 297 kts | 72° |
| 2026-04-17 11:05 | 48.66279 | 2.72240 | 5475 ft | 288 kts | 72° |
| 2026-04-17 11:05 | 48.66865 | 2.75088 | 5173 ft | 278 kts | 72° |
| 2026-04-17 11:05 | 48.67424 | 2.77835 | 4916 ft | 268 kts | 72° |
| 2026-04-17 11:06 | 48.67976 | 2.80423 | 4634 ft | 258 kts | 64° |
| 2026-04-17 11:06 | 48.69091 | 2.82415 | 4331 ft | 245 kts | 27° |
| 2026-04-17 11:06 | 48.70708 | 2.82925 | 4081 ft | 232 kts | 348° |
| 2026-04-17 11:06 | 48.72058 | 2.81821 | 4018 ft | 229 kts | 311° |
| 2026-04-17 11:07 | 48.73040 | 2.79937 | 3988 ft | 225 kts | 307° |
| 2026-04-17 11:07 | 48.73976 | 2.78084 | 3977 ft | 217 kts | 307° |
| 2026-04-17 11:07 | 48.74884 | 2.76275 | 3976 ft | 214 kts | 307° |
| 2026-04-17 11:07 | 48.75782 | 2.74480 | 3964 ft | 214 kts | 307° |
| 2026-04-17 11:08 | 48.76681 | 2.72686 | 3928 ft | 214 kts | 307° |
| 2026-04-17 11:08 | 48.77568 | 2.70870 | 3899 ft | 212 kts | 301° |
| 2026-04-17 11:08 | 48.77912 | 2.68751 | 3857 ft | 212 kts | 263° |
| 2026-04-17 11:08 | 48.77572 | 2.66557 | 3829 ft | 216 kts | 257° |
| 2026-04-17 11:09 | 48.77206 | 2.64352 | 3607 ft | 215 kts | 256° |
| 2026-04-17 11:09 | 48.76817 | 2.62192 | 3339 ft | 209 kts | 255° |
| 2026-04-17 11:09 | 48.76430 | 2.60106 | 3074 ft | 202 kts | 254° |
| 2026-04-17 11:10 | 48.75708 | 2.56237 | 2554 ft | 180 kts | 254° |
| 2026-04-17 11:10 | 48.75379 | 2.54462 | 2326 ft | 170 kts | 254° |
| 2026-04-17 11:10 | 48.75070 | 2.52801 | 2125 ft | 155 kts | 254° |
| 2026-04-17 11:10 | 48.74781 | 2.51240 | 1888 ft | 154 kts | 254° |
| 2026-04-17 11:11 | 48.74491 | 2.49677 | 1671 ft | 153 kts | 254° |
| 2026-04-17 11:11 | 48.74207 | 2.48140 | 1460 ft | 152 kts | 254° |
| 2026-04-17 11:11 | 48.73921 | 2.46597 | 1269 ft | 153 kts | 254° |
| 2026-04-17 11:11 | 48.73637 | 2.45052 | 1079 ft | 151 kts | 254° |
| 2026-04-17 11:12 | 48.73351 | 2.43504 | 850 ft | 153 kts | 254° |
| 2026-04-17 11:12 | 48.73061 | 2.41960 | 659 ft | 152 kts | 254° |
| 2026-04-17 11:12 | 48.72779 | 2.40415 | 454 ft | 152 kts | 255° |
| 2026-04-17 11:12 | 48.72498 | 2.38881 | 304 ft | 147 kts | 255° |
| 2026-04-17 11:13 | 48.72255 | 2.37556 | 296 ft | 110 kts | 254° |
| 2026-04-17 11:13 | 48.72090 | 2.36663 | 299 ft | 66 kts | 254° |
| 2026-04-17 11:13 | 48.71983 | 2.36086 | 301 ft | 38 kts | 255° |
| 2026-04-17 11:13 | 48.72016 | 2.35792 | 296 ft | 28 kts | 298° |
| 2026-04-17 11:14 | 48.72148 | 2.35633 | 298 ft | 23 kts | 346° |
| 2026-04-17 11:14 | 48.72300 | 2.35618 | 296 ft | 22 kts | 21° |
| 2026-04-17 11:14 | 48.72446 | 2.35628 | 299 ft | 20 kts | 36° |
| 2026-04-17 11:14 | 48.72477 | 2.35826 | 298 ft | 19 kts | 93° |
| 2026-04-17 11:15 | 48.72537 | 2.35934 | 298 ft | 14 kts | 13° |
| 2026-04-17 11:15 | 48.72612 | 2.35944 | 297 ft | 4 kts | 360° |
| 2026-04-17 11:15 | 48.72623 | 2.35944 | 299 ft | 1 kts | 0° |
| 2026-04-17 11:15 | 48.72628 | 2.35944 | 299 ft | 0 kts | 0° |